createdAt,value
2022-08-05T00:00:16.300Z,100621.72
2022-08-05T00:02:43.832Z,100628.09
2022-08-05T00:06:03.051Z,100631.72
2022-08-05T00:08:05.140Z,100628.97
2022-08-05T00:10:31.747Z,100630.91
2022-08-05T00:12:58.610Z,100627.94
2022-08-05T00:15:55.271Z,100633.13
2022-08-05T00:18:21.309Z,100632.22
2022-08-05T00:20:49.859Z,100636.16
2022-08-05T00:23:16.357Z,100643.84
2022-08-05T00:25:45.746Z,100635.75
2022-08-05T00:28:12.864Z,100630.38
2022-08-05T00:30:39.377Z,100637.16
2022-08-05T00:34:42.310Z,100667.81
2022-08-05T00:36:16.516Z,100670.88
2022-08-05T00:38:41.319Z,100655.63
2022-08-05T00:41:11.628Z,100655.94
2022-08-05T00:43:46.998Z,100664.94
2022-08-05T00:46:16.246Z,100664.06
2022-08-05T00:48:50.573Z,100661.72
2022-08-05T00:51:50.382Z,100661.09
2022-08-05T00:54:05.623Z,100670.31
2022-08-05T00:56:32.060Z,100685.38
2022-08-05T00:59:00.164Z,100675.56
2022-08-05T01:01:48.777Z,100664.81
2022-08-05T01:04:14.107Z,100662.72
2022-08-05T01:06:40.931Z,100661.09
2022-08-05T01:09:10.077Z,100691.50
2022-08-05T01:11:39.443Z,100694.22
2022-08-05T01:14:15.636Z,100675.84
2022-08-05T01:16:50.977Z,100694.56
2022-08-05T01:19:21.727Z,100693.56
2022-08-05T01:22:18.886Z,100680.19
2022-08-05T01:25:11.774Z,100702.91
2022-08-05T01:27:55.784Z,100687.34
2022-08-05T01:30:34.752Z,100673.97
2022-08-05T01:33:06.411Z,100688.81
2022-08-05T01:35:51.240Z,100683.47
2022-08-05T01:38:24.680Z,100677.50
2022-08-05T01:40:57.324Z,100665.69
2022-08-05T01:43:24.881Z,100667.84
2022-08-05T01:45:56.209Z,100667.28
2022-08-05T01:48:25.942Z,100651.50
2022-08-05T01:50:56.692Z,100660.53
2022-08-05T01:53:54.777Z,100662.22
2022-08-05T01:56:13.991Z,100661.34
2022-08-05T01:59:03.300Z,100662.94
2022-08-05T02:01:40.180Z,100666.72
2022-08-05T02:04:10.367Z,100664.16
2022-08-05T02:06:38.773Z,100665.44
2022-08-05T02:09:06.866Z,100664.16
2022-08-05T02:11:47.896Z,100674.53
2022-08-05T02:14:26.660Z,100673.84
2022-08-05T02:16:55.790Z,100664.91
2022-08-05T02:19:28.021Z,100663.50
2022-08-05T02:22:01.129Z,100654.25
2022-08-05T02:24:32.914Z,100666.50
2022-08-05T02:27:09.972Z,100659.50
2022-08-05T02:29:58.846Z,100668.28
2022-08-05T02:32:29.448Z,100662.47
2022-08-05T02:35:09.582Z,100655.94
2022-08-05T02:37:43.059Z,100653.38
2022-08-05T02:40:16.982Z,100659.59
2022-08-05T02:42:44.752Z,100662.81
2022-08-05T02:45:21.263Z,100664.78
2022-08-05T02:48:06.465Z,100672.44
2022-08-05T02:50:44.013Z,100658.09
2022-08-05T02:53:12.050Z,100659.66
2022-08-05T02:55:52.077Z,100652.44
2022-08-05T02:58:23.240Z,100652.78
2022-08-05T03:00:55.771Z,100638.53
2022-08-05T03:03:23.660Z,100642.44
2022-08-05T03:06:56.651Z,100644.69
2022-08-05T03:08:42.576Z,100630.78
2022-08-05T03:11:55.693Z,100631.06
2022-08-05T03:14:13.548Z,100625.66
2022-08-05T03:16:40.452Z,100612.28
2022-08-05T03:19:17.247Z,100620.09
2022-08-05T03:21:53.346Z,100605.97
2022-08-05T03:24:29.529Z,100616.66
2022-08-05T03:27:00.234Z,100630.19
2022-08-05T03:29:44.654Z,100622.06
2022-08-05T03:32:15.225Z,100633.34
2022-08-05T03:34:50.441Z,100642.09
2022-08-05T03:37:19.525Z,100641.97
2022-08-05T03:39:59.155Z,100647.63
2022-08-05T03:42:29.186Z,100643.97
2022-08-05T03:44:58.509Z,100644.63
2022-08-05T03:47:25.357Z,100643.75
2022-08-05T03:49:57.368Z,100633.66
2022-08-05T03:52:49.156Z,100632.78
2022-08-05T03:56:05.886Z,100638.09
2022-08-05T03:58:12.579Z,100654.03
2022-08-05T04:00:41.833Z,100661.63
2022-08-05T04:03:14.904Z,100669.59
2022-08-05T04:05:54.052Z,100676.03
2022-08-05T04:08:30.119Z,100674.56
2022-08-05T04:11:07.282Z,100668.50
2022-08-05T04:13:49.799Z,100680.69
2022-08-05T04:16:24.150Z,100684.06
2022-08-05T04:18:54.119Z,100679.50
2022-08-05T04:22:09.157Z,100679.09
2022-08-05T04:24:09.129Z,100664.00
2022-08-05T04:26:45.512Z,100660.16
2022-08-05T04:29:13.106Z,100654.44
2022-08-05T04:31:40.766Z,100648.06
2022-08-05T04:34:19.303Z,100645.63
2022-08-05T04:36:54.317Z,100652.78
2022-08-05T04:39:21.165Z,100660.44
2022-08-05T04:41:48.903Z,100656.84
2022-08-05T04:44:29.164Z,100660.31
2022-08-05T04:46:57.299Z,100662.09
2022-08-05T04:49:38.584Z,100678.16
2022-08-05T04:52:11.484Z,100680.97
2022-08-05T04:54:38.166Z,100686.91
2022-08-05T04:57:04.614Z,100693.56
2022-08-05T04:59:39.192Z,100686.38
2022-08-05T05:02:37.433Z,100694.06
2022-08-05T05:05:01.988Z,100701.00
2022-08-05T05:07:32.373Z,100714.22
2022-08-05T05:09:59.433Z,100730.88
2022-08-05T05:12:29.154Z,100752.69
2022-08-05T05:14:55.635Z,100777.56
2022-08-05T05:17:24.656Z,100776.38
2022-08-05T05:20:09.108Z,100763.94
2022-08-05T05:22:35.953Z,100769.72
2022-08-05T05:25:17.009Z,100758.97
2022-08-05T05:27:53.651Z,100753.72
2022-08-05T05:30:31.508Z,100752.94
2022-08-05T05:33:08.771Z,100753.66
2022-08-05T05:35:43.863Z,100763.75
2022-08-05T05:38:13.812Z,100778.06
2022-08-05T05:40:49.979Z,100795.84
2022-08-05T05:43:57.084Z,100828.63
2022-08-05T05:46:16.020Z,100848.44
2022-08-05T05:48:44.843Z,100845.41
2022-08-05T05:51:18.637Z,100844.72
2022-08-05T05:53:54.026Z,100848.44
2022-08-05T05:56:26.246Z,100850.84
2022-08-05T05:58:58.503Z,100857.31
2022-08-05T06:01:36.986Z,100864.78
2022-08-05T06:04:08.059Z,100872.47
2022-08-05T06:06:35.564Z,100878.59
2022-08-05T06:09:05.993Z,100892.09
2022-08-05T06:11:34.502Z,100892.56
2022-08-05T06:14:00.995Z,100888.72
2022-08-05T06:16:33.025Z,100880.66
2022-08-05T06:19:05.793Z,100874.97
2022-08-05T06:21:36.800Z,100865.28
2022-08-05T06:24:11.981Z,100858.63
2022-08-05T06:26:51.306Z,100867.78
2022-08-05T06:29:42.911Z,100847.91
2022-08-05T06:32:25.377Z,100836.03
2022-08-05T06:34:56.080Z,100852.59
2022-08-05T06:37:56.725Z,100854.78
2022-08-05T06:40:10.782Z,100858.19
2022-08-05T06:42:39.784Z,100848.97
2022-08-05T06:45:08.585Z,100835.88
2022-08-05T06:48:44.294Z,100834.72
2022-08-05T06:50:22.345Z,100833.06
2022-08-05T06:52:58.488Z,100842.53
2022-08-05T06:55:36.238Z,100853.53
2022-08-05T06:58:29.705Z,100859.03
2022-08-05T07:00:50.260Z,100859.34
2022-08-05T07:03:17.221Z,100869.72
2022-08-05T07:05:44.078Z,100886.22
2022-08-05T07:08:13.239Z,100898.28
2022-08-05T07:10:53.062Z,100920.56
2022-08-05T07:13:57.946Z,100928.25
2022-08-05T07:17:56.413Z,100917.03
2022-08-05T07:20:16.645Z,100907.69
2022-08-05T07:22:22.031Z,100898.88
2022-08-05T07:24:56.155Z,100883.66
2022-08-05T07:27:22.911Z,100868.44
2022-08-05T07:30:23.910Z,100868.31
2022-08-05T07:32:40.702Z,100877.81
2022-08-05T07:36:01.815Z,100889.84
2022-08-05T07:37:55.600Z,100887.41
2022-08-05T07:40:31.467Z,100883.53
2022-08-05T07:42:59.221Z,100881.81
2022-08-05T07:45:56.733Z,100878.88
2022-08-05T07:49:02.269Z,100863.53
2022-08-05T07:51:22.927Z,100860.66
2022-08-05T07:53:51.671Z,100858.38
2022-08-05T07:57:00.233Z,100843.03
2022-08-05T07:59:04.899Z,100821.16
2022-08-05T08:01:35.369Z,100825.88
2022-08-05T08:04:08.046Z,100831.84
2022-08-05T08:06:34.516Z,100835.78
2022-08-05T08:09:00.971Z,100834.09
2022-08-05T08:11:47.781Z,100843.94
2022-08-05T08:14:18.421Z,100845.53
2022-08-05T08:16:51.360Z,100843.94
2022-08-05T08:20:22.898Z,100852.41
2022-08-05T08:22:09.702Z,100876.06
2022-08-05T08:24:51.288Z,100874.94
2022-08-05T08:27:18.772Z,100860.19
2022-08-05T08:30:05.282Z,100867.25
2022-08-05T08:32:36.168Z,100876.88
2022-08-05T08:35:13.658Z,100897.44
2022-08-05T08:37:40.421Z,100908.47
2022-08-05T08:40:12.448Z,100917.59
2022-08-05T08:42:50.458Z,100925.88
2022-08-05T08:45:27.218Z,100942.69
2022-08-05T08:48:07.113Z,100937.31
2022-08-05T08:51:22.572Z,100953.44
2022-08-05T08:53:44.301Z,100953.09
2022-08-05T08:56:11.816Z,100948.75
2022-08-05T08:58:47.434Z,100943.56
2022-08-05T09:01:17.237Z,100933.31
2022-08-05T09:03:54.344Z,100945.91
2022-08-05T09:06:28.004Z,100943.78
2022-08-05T09:08:56.995Z,100940.03
2022-08-05T09:11:52.782Z,100951.47
2022-08-05T09:14:57.860Z,100943.34
2022-08-05T09:17:03.816Z,100934.97
2022-08-05T09:19:36.799Z,100937.75
2022-08-05T09:22:21.798Z,100927.56
2022-08-05T09:25:02.225Z,100931.91
2022-08-05T09:28:04.566Z,100947.19
2022-08-05T09:30:34.250Z,100952.06
2022-08-05T09:33:04.751Z,100931.50
2022-08-05T09:35:31.499Z,100908.25
2022-08-05T09:38:18.452Z,100917.13
2022-08-05T09:40:52.571Z,100914.78
2022-08-05T09:43:40.589Z,100903.81
2022-08-05T09:46:27.980Z,100894.97
2022-08-05T09:49:08.199Z,100890.00
2022-08-05T09:51:49.533Z,100880.28
2022-08-05T09:54:29.002Z,100889.91
2022-08-05T09:56:57.658Z,100891.41
2022-08-05T09:59:27.993Z,100872.63
2022-08-05T10:01:57.978Z,100880.25
2022-08-05T10:04:35.814Z,100893.19
2022-08-05T10:07:06.134Z,100911.19
2022-08-05T10:10:13.952Z,100905.72
2022-08-05T10:12:49.652Z,100898.63
2022-08-05T10:15:37.587Z,100910.81
2022-08-05T10:18:20.346Z,100921.97
2022-08-05T10:20:55.907Z,100934.50
2022-08-05T10:23:50.887Z,100938.66
2022-08-05T10:26:15.214Z,100931.66
2022-08-05T10:28:46.380Z,100943.91
2022-08-05T10:32:52.142Z,100943.28
2022-08-05T10:34:02.730Z,100943.47
2022-08-05T10:36:30.556Z,100940.94
2022-08-05T10:39:05.003Z,100939.34
2022-08-05T10:42:01.386Z,100937.59
2022-08-05T10:44:29.367Z,100945.13
2022-08-05T10:46:56.684Z,100925.22
2022-08-05T10:49:26.789Z,100928.09
2022-08-05T10:52:02.668Z,100913.63
2022-08-05T10:55:01.671Z,100899.81
2022-08-05T10:57:30.967Z,100913.22
2022-08-05T11:00:19.042Z,100922.06
2022-08-05T11:03:23.735Z,100920.03
2022-08-05T11:06:15.196Z,100920.25
2022-08-05T11:09:13.043Z,100929.03
2022-08-05T11:11:52.163Z,100931.06
2022-08-05T11:14:37.283Z,100933.50
2022-08-05T11:18:07.437Z,100930.22
2022-08-05T11:20:41.835Z,100928.03
2022-08-05T11:23:33.401Z,100926.16
2022-08-05T11:26:28.311Z,100929.25
2022-08-05T11:29:06.899Z,100942.66
2022-08-05T11:31:57.942Z,100940.28
2022-08-05T11:34:39.371Z,100931.50
2022-08-05T11:38:29.465Z,100920.06
2022-08-05T11:40:00.688Z,100925.66
2022-08-05T11:42:38.022Z,100924.31
2022-08-05T11:45:26.766Z,100925.63
2022-08-05T11:47:55.053Z,100930.03
2022-08-05T11:50:22.346Z,100936.19
2022-08-05T11:52:51.088Z,100946.06
2022-08-05T11:55:19.801Z,100933.75
2022-08-05T11:58:09.297Z,100940.00
2022-08-05T12:00:38.351Z,100935.75
2022-08-05T12:03:28.561Z,100933.09
2022-08-05T12:06:06.620Z,100917.94
2022-08-05T12:08:50.939Z,100928.22
2022-08-05T12:11:39.791Z,100924.94
2022-08-05T12:14:10.545Z,100927.81
2022-08-05T12:16:39.385Z,100936.50
2022-08-05T12:19:08.432Z,100928.25
2022-08-05T12:21:49.483Z,100924.56
2022-08-05T12:24:20.787Z,100922.88
2022-08-05T12:26:53.106Z,100929.50
2022-08-05T12:29:22.864Z,100929.09
2022-08-05T12:31:55.315Z,100934.84
2022-08-05T12:34:26.638Z,100937.34
2022-08-05T12:36:54.800Z,100942.69
2022-08-05T12:39:23.748Z,100938.16
2022-08-05T12:42:01.968Z,100949.69
2022-08-05T12:44:34.187Z,100961.63
2022-08-05T12:47:02.253Z,100952.56
2022-08-05T12:50:04.782Z,100953.78
2022-08-05T12:52:32.312Z,100948.81
2022-08-05T12:55:18.069Z,100955.88
2022-08-05T12:58:50.692Z,100948.06
2022-08-05T13:02:01.238Z,100954.66
2022-08-05T13:03:32.494Z,100944.66
2022-08-05T13:05:59.676Z,100937.66
2022-08-05T13:08:30.007Z,100938.81
2022-08-05T13:11:02.341Z,100953.66
2022-08-05T13:14:05.756Z,100953.69
2022-08-05T13:16:17.308Z,100948.34
2022-08-05T13:18:57.786Z,100955.84
2022-08-05T13:21:28.141Z,100952.97
2022-08-05T13:24:04.789Z,100950.09
2022-08-05T13:26:31.205Z,100950.50
2022-08-05T13:28:59.133Z,100954.22
2022-08-05T13:31:33.826Z,100948.88
2022-08-05T13:34:23.243Z,100960.00
2022-08-05T13:36:52.250Z,100952.16
2022-08-05T13:39:24.682Z,100959.09
2022-08-05T13:42:05.261Z,100958.66
2022-08-05T13:44:32.391Z,100952.91
2022-08-05T13:47:01.721Z,100957.88
2022-08-05T13:49:31.427Z,100953.75
2022-08-05T13:52:18.433Z,100954.19
2022-08-05T13:54:53.528Z,100948.03
2022-08-05T13:57:20.674Z,100940.63
2022-08-05T13:59:55.366Z,100947.22
2022-08-05T14:02:26.554Z,100945.56
2022-08-05T14:05:11.982Z,100944.72
2022-08-05T14:08:00.583Z,100950.13
2022-08-05T14:10:30.961Z,100943.50
2022-08-05T14:12:58.269Z,100954.25
2022-08-05T14:16:07.118Z,100956.25
2022-08-05T14:18:14.730Z,100946.41
2022-08-05T14:20:46.822Z,100964.53
2022-08-05T14:23:13.851Z,100974.75
2022-08-05T14:25:43.573Z,100973.16
2022-08-05T14:28:22.755Z,100984.22
2022-08-05T14:30:53.657Z,100982.16
2022-08-05T14:33:22.460Z,100985.84
2022-08-05T14:35:51.769Z,100988.94
2022-08-05T14:38:31.518Z,100996.34
2022-08-05T14:41:06.275Z,101004.91
2022-08-05T14:43:57.673Z,100998.66
2022-08-05T14:46:28.131Z,100999.00
2022-08-05T14:48:56.927Z,100980.47
2022-08-05T14:51:23.944Z,100978.44
2022-08-05T14:54:25.905Z,100980.41
2022-08-05T14:56:37.989Z,100990.56
2022-08-05T14:59:11.329Z,100983.25
2022-08-05T15:01:47.236Z,100984.00
2022-08-05T15:04:15.955Z,100986.06
2022-08-05T15:06:42.399Z,100985.06
2022-08-05T15:09:16.032Z,100990.34
2022-08-05T15:12:04.041Z,100984.13
2022-08-05T15:14:35.551Z,101006.94
2022-08-05T15:17:14.527Z,101004.31
2022-08-05T15:19:55.846Z,101026.28
2022-08-05T15:22:22.601Z,101029.50
2022-08-05T15:24:54.122Z,101024.25
2022-08-05T15:27:20.543Z,101015.56
2022-08-05T15:29:47.044Z,101016.75
2022-08-05T15:32:16.465Z,101017.00
2022-08-05T15:34:43.137Z,101014.19
2022-08-05T15:37:15.537Z,101021.97
2022-08-05T15:41:01.610Z,101029.84
2022-08-05T15:42:55.592Z,101033.38
2022-08-05T15:45:16.006Z,101026.13
2022-08-05T15:47:43.826Z,101035.13
2022-08-05T15:50:15.506Z,101044.22
2022-08-05T15:52:53.303Z,101042.25
2022-08-05T15:55:24.903Z,101037.66
2022-08-05T15:58:08.845Z,101053.06
2022-08-05T16:00:50.608Z,101057.94
2022-08-05T16:03:21.855Z,101054.41
2022-08-05T16:05:52.413Z,101052.47
2022-08-05T16:08:19.285Z,101056.63
2022-08-05T16:10:45.716Z,101075.81
2022-08-05T16:13:12.533Z,101087.66
2022-08-05T16:15:45.832Z,101085.19
2022-08-05T16:18:13.828Z,101099.09
2022-08-05T16:20:40.924Z,101094.03
2022-08-05T16:23:08.626Z,101105.22
2022-08-05T16:25:35.975Z,101107.31
2022-08-05T16:28:06.662Z,101105.38
2022-08-05T16:30:36.824Z,101122.88
2022-08-05T16:33:03.377Z,101131.88
2022-08-05T16:35:33.530Z,101143.69
2022-08-05T16:38:18.699Z,101147.63
2022-08-05T16:40:55.683Z,101154.22
2022-08-05T16:43:30.929Z,101156.00
2022-08-05T16:46:04.704Z,101173.09
2022-08-05T16:48:39.276Z,101176.13
2022-08-05T16:51:09.277Z,101180.28
2022-08-05T16:54:05.931Z,101180.28
2022-08-05T16:56:25.221Z,101193.75
2022-08-05T16:58:51.740Z,101197.88
2022-08-05T17:01:18.725Z,101197.41
2022-08-05T17:03:45.638Z,101208.03
2022-08-05T17:06:12.466Z,101225.63
2022-08-05T17:08:53.165Z,101234.63
2022-08-05T17:11:25.400Z,101245.56
2022-08-05T17:14:00.614Z,101258.88
2022-08-05T17:16:36.439Z,101233.22
2022-08-05T17:19:07.878Z,101230.13
2022-08-05T17:21:37.633Z,101249.72
2022-08-05T17:24:18.614Z,101250.19
2022-08-05T17:26:55.651Z,101262.91
2022-08-05T17:29:33.888Z,101259.31
2022-08-05T17:32:17.093Z,101257.75
2022-08-05T17:34:49.131Z,101256.91
2022-08-05T17:37:41.770Z,101251.19
2022-08-05T17:40:10.247Z,101254.97
2022-08-05T17:42:42.980Z,101249.22
2022-08-05T17:45:20.797Z,101257.88
2022-08-05T17:47:54.088Z,101270.22
2022-08-05T17:50:28.045Z,101270.78
2022-08-05T17:53:01.274Z,101284.34
2022-08-05T17:55:37.949Z,101288.09
2022-08-05T17:58:13.217Z,101289.06
2022-08-05T18:00:44.971Z,101284.34
2022-08-05T18:03:28.063Z,101289.91
2022-08-05T18:06:04.570Z,101306.03
2022-08-05T18:08:34.746Z,101301.84
2022-08-05T18:11:01.204Z,101305.25
2022-08-05T18:13:36.937Z,101311.72
2022-08-05T18:16:13.576Z,101313.66
2022-08-05T18:18:41.162Z,101312.44
2022-08-05T18:21:13.386Z,101321.38
2022-08-05T18:23:47.096Z,101331.56
2022-08-05T18:26:13.840Z,101335.34
2022-08-05T18:28:44.488Z,101338.50
2022-08-05T18:31:13.236Z,101338.34
2022-08-05T18:33:47.344Z,101337.22
2022-08-05T18:36:17.965Z,101342.22
2022-08-05T18:38:45.768Z,101343.38
2022-08-05T18:41:57.002Z,101343.88
2022-08-05T18:44:05.488Z,101350.81
2022-08-05T18:46:33.266Z,101359.00
2022-08-05T18:49:20.533Z,101372.09
2022-08-05T18:52:08.539Z,101366.41
2022-08-05T18:54:35.686Z,101372.63
2022-08-05T18:57:02.574Z,101377.25
2022-08-05T18:59:43.409Z,101373.13
2022-08-05T19:02:28.101Z,101381.34
2022-08-05T19:05:02.587Z,101392.19
2022-08-05T19:07:50.108Z,101388.69
2022-08-05T19:10:26.554Z,101386.00
2022-08-05T19:12:55.466Z,101399.75
2022-08-05T19:15:57.511Z,101398.69
2022-08-05T19:18:10.698Z,101395.88
2022-08-05T19:20:41.699Z,101397.03
2022-08-05T19:24:03.502Z,101407.25
2022-08-05T19:26:01.634Z,101414.94
2022-08-05T19:28:29.017Z,101411.75
2022-08-05T19:30:55.702Z,101414.75
2022-08-05T19:33:34.061Z,101417.28
2022-08-05T19:36:02.567Z,101424.78
2022-08-05T19:38:29.007Z,101418.94
2022-08-05T19:40:55.499Z,101428.31
2022-08-05T19:44:04.934Z,101431.66
2022-08-05T19:46:16.698Z,101437.16
2022-08-05T19:48:55.258Z,101435.31
2022-08-05T19:51:31.264Z,101440.53
2022-08-05T19:54:21.919Z,101437.84
2022-08-05T19:56:57.443Z,101447.50
2022-08-05T19:59:56.582Z,101440.53
2022-08-05T20:02:10.379Z,101445.03
2022-08-05T20:04:37.458Z,101451.53
2022-08-05T20:07:04.100Z,101454.69
2022-08-05T20:09:54.627Z,101461.19
2022-08-05T20:12:24.311Z,101457.88
2022-08-05T20:14:52.345Z,101462.22
2022-08-05T20:17:23.670Z,101474.03
2022-08-05T20:19:57.332Z,101472.81
2022-08-05T20:22:26.811Z,101479.84
2022-08-05T20:24:57.187Z,101474.19
2022-08-05T20:27:27.284Z,101476.03
2022-08-05T20:30:09.578Z,101475.66
2022-08-05T20:32:36.741Z,101490.69
2022-08-05T20:35:11.700Z,101489.84
2022-08-05T20:38:06.608Z,101501.09
2022-08-05T20:40:24.808Z,101510.47
2022-08-05T20:42:53.484Z,101519.47
2022-08-05T20:45:56.322Z,101529.22
2022-08-05T20:48:12.949Z,101530.13
2022-08-05T20:50:45.210Z,101533.78
2022-08-05T20:53:16.031Z,101536.47
2022-08-05T20:56:08.667Z,101543.81
2022-08-05T20:58:35.985Z,101554.59
2022-08-05T21:01:03.849Z,101552.72
2022-08-05T21:03:34.729Z,101549.56
2022-08-05T21:06:01.714Z,101551.44
2022-08-05T21:08:41.907Z,101553.81
2022-08-05T21:11:12.973Z,101559.03
2022-08-05T21:13:59.100Z,101558.25
2022-08-05T21:16:30.013Z,101569.41
2022-08-05T21:18:59.883Z,101571.44
2022-08-05T21:21:26.847Z,101572.34
2022-08-05T21:24:07.296Z,101574.63
2022-08-05T21:26:33.797Z,101574.44
2022-08-05T21:29:03.539Z,101566.72
2022-08-05T21:31:41.194Z,101571.59
2022-08-05T21:34:10.534Z,101572.44
2022-08-05T21:36:37.721Z,101585.97
2022-08-05T21:39:04.219Z,101582.25
2022-08-05T21:41:34.211Z,101586.00
2022-08-05T21:44:04.108Z,101592.66
2022-08-05T21:46:34.520Z,101587.66
2022-08-05T21:49:02.311Z,101586.81
2022-08-05T21:52:21.814Z,101587.34
2022-08-05T21:54:27.678Z,101587.53
2022-08-05T21:57:09.544Z,101592.06
2022-08-05T22:00:03.066Z,101601.81
2022-08-05T22:02:27.673Z,101606.28
2022-08-05T22:04:58.093Z,101608.25
2022-08-05T22:07:39.834Z,101600.09
2022-08-05T22:10:11.813Z,101603.75
2022-08-05T22:12:44.963Z,101592.94
2022-08-05T22:16:01.704Z,101596.53
2022-08-05T22:18:04.618Z,101611.03
2022-08-05T22:20:31.233Z,101623.00
2022-08-05T22:23:21.348Z,101626.47
2022-08-05T22:26:09.996Z,101631.69
2022-08-05T22:28:38.051Z,101634.44
2022-08-05T22:31:05.853Z,101628.50
2022-08-05T22:33:58.113Z,101633.81
2022-08-05T22:36:19.525Z,101638.00
2022-08-05T22:38:51.699Z,101632.25
2022-08-05T22:41:26.235Z,101640.84
2022-08-05T22:44:08.451Z,101643.59
2022-08-05T22:46:40.047Z,101641.00
2022-08-05T22:49:23.123Z,101637.19
2022-08-05T22:52:04.579Z,101633.97
2022-08-05T22:54:33.456Z,101644.22
2022-08-05T22:56:59.887Z,101657.44
2022-08-05T22:59:45.372Z,101646.97
2022-08-05T23:02:13.777Z,101661.41
2022-08-05T23:04:51.206Z,101656.72
2022-08-05T23:07:19.101Z,101662.03
2022-08-05T23:09:58.282Z,101658.81
2022-08-05T23:12:32.861Z,101650.06
2022-08-05T23:15:04.021Z,101661.72
2022-08-05T23:17:59.676Z,101659.16
2022-08-05T23:20:24.356Z,101662.31
2022-08-05T23:22:54.169Z,101662.16
2022-08-05T23:25:52.713Z,101662.75
2022-08-05T23:28:09.875Z,101669.66
2022-08-05T23:30:40.404Z,101666.31
2022-08-05T23:33:22.037Z,101659.72
2022-08-05T23:35:50.017Z,101663.22
2022-08-05T23:38:16.985Z,101671.69
2022-08-05T23:40:49.383Z,101675.84
2022-08-05T23:43:25.764Z,101686.25
2022-08-05T23:46:03.196Z,101692.53
2022-08-05T23:48:29.643Z,101696.34
2022-08-05T23:50:56.058Z,101691.84
2022-08-05T23:53:28.489Z,101689.78
2022-08-05T23:56:11.672Z,101682.97
2022-08-05T23:58:38.527Z,101689.63
